createdAt,value
2023-05-06T00:00:37.687Z,99.90
2023-05-06T00:01:39.938Z,99.90
2023-05-06T00:02:43.166Z,99.90
2023-05-06T00:03:45.809Z,99.90
2023-05-06T00:04:49.369Z,99.90
2023-05-06T00:05:51.595Z,99.90
2023-05-06T00:06:56.746Z,99.90
2023-05-06T00:07:59.124Z,99.90
2023-05-06T00:09:02.256Z,99.90
2023-05-06T00:10:05.683Z,99.90
2023-05-06T00:11:08.763Z,99.90
2023-05-06T00:12:11.173Z,99.90
2023-05-06T00:13:14.685Z,99.90
2023-05-06T00:14:18.896Z,99.90
2023-05-06T00:15:21.980Z,99.90
2023-05-06T00:16:24.086Z,99.90
2023-05-06T00:17:27.335Z,99.90
2023-05-06T00:18:29.437Z,99.90
2023-05-06T00:19:32.526Z,99.90
2023-05-06T00:20:34.610Z,99.90
2023-05-06T00:21:37.814Z,99.90
2023-05-06T00:22:39.841Z,99.90
2023-05-06T00:23:42.809Z,99.90
2023-05-06T00:24:44.869Z,99.90
2023-05-06T00:25:47.852Z,99.90
2023-05-06T00:26:49.975Z,99.90
2023-05-06T00:27:54.355Z,99.90
2023-05-06T00:28:56.405Z,99.90
2023-05-06T00:30:00.998Z,99.90
2023-05-06T00:31:03.038Z,99.90
2023-05-06T00:32:06.851Z,99.90
2023-05-06T00:33:09.183Z,99.90
2023-05-06T00:34:12.253Z,99.90
2023-05-06T00:35:14.945Z,99.90
2023-05-06T00:36:18.479Z,99.90
2023-05-06T00:37:21.094Z,99.90
2023-05-06T00:38:24.329Z,99.90
2023-05-06T00:39:26.750Z,99.90
2023-05-06T00:40:29.836Z,99.90
2023-05-06T00:41:32.699Z,99.90
2023-05-06T00:42:35.770Z,99.90
2023-05-06T00:43:38.008Z,99.90
2023-05-06T00:44:41.006Z,99.90
2023-05-06T00:45:44.636Z,99.90
2023-05-06T00:46:50.022Z,99.90
2023-05-06T00:47:52.863Z,99.90
2023-05-06T00:48:56.697Z,99.90
2023-05-06T00:49:58.834Z,99.90
2023-05-06T00:51:01.973Z,99.90
2023-05-06T00:52:04.463Z,99.90
2023-05-06T00:53:09.802Z,99.90
2023-05-06T00:54:12.403Z,99.90
2023-05-06T00:55:16.195Z,99.90
2023-05-06T00:56:20.661Z,99.90
2023-05-06T00:57:24.672Z,99.90
2023-05-06T00:58:26.867Z,99.90
2023-05-06T00:59:29.945Z,99.90
2023-05-06T01:00:32.352Z,99.90
2023-05-06T01:01:37.517Z,99.90
2023-05-06T01:02:46.864Z,99.90
2023-05-06T01:03:51.973Z,99.90
2023-05-06T01:04:55.484Z,99.90
2023-05-06T01:06:09.712Z,99.90
2023-05-06T01:07:22.513Z,99.90
2023-05-06T01:08:30.689Z,99.90
2023-05-06T01:09:39.353Z,99.90
2023-05-06T01:10:50.795Z,99.90
2023-05-06T01:11:59.719Z,99.90
2023-05-06T01:13:09.364Z,99.90
2023-05-06T01:14:20.681Z,99.90
2023-05-06T01:15:29.849Z,99.90
2023-05-06T01:16:34.357Z,99.90
2023-05-06T01:17:44.476Z,99.90
2023-05-06T01:18:50.673Z,99.90
2023-05-06T01:19:58.389Z,99.90
2023-05-06T01:21:03.321Z,99.90
2023-05-06T01:22:07.260Z,99.90
2023-05-06T01:23:13.338Z,99.90
2023-05-06T01:24:15.764Z,99.90
2023-05-06T01:25:20.483Z,99.90
2023-05-06T01:26:23.488Z,99.90
2023-05-06T01:27:26.604Z,99.90
2023-05-06T01:28:29.429Z,99.90
2023-05-06T01:29:33.010Z,99.90
2023-05-06T01:30:40.664Z,99.90
2023-05-06T01:31:48.380Z,99.90
2023-05-06T01:33:05.474Z,99.90
2023-05-06T01:34:15.300Z,99.90
2023-05-06T01:35:25.346Z,99.90
2023-05-06T01:36:34.480Z,99.90
2023-05-06T01:37:44.341Z,99.90
2023-05-06T01:38:56.060Z,99.90
2023-05-06T01:40:00.268Z,99.90
2023-05-06T01:41:04.349Z,99.90
2023-05-06T01:42:09.524Z,99.90
2023-05-06T01:43:15.334Z,99.90
2023-05-06T01:44:21.300Z,99.90
2023-05-06T01:45:29.578Z,99.90
2023-05-06T01:46:33.326Z,99.90
2023-05-06T01:47:37.714Z,99.90
2023-05-06T01:48:41.353Z,99.90
2023-05-06T01:49:44.644Z,99.90
2023-05-06T01:50:46.869Z,99.90
2023-05-06T01:51:52.043Z,99.90
2023-05-06T01:52:58.142Z,99.90
2023-05-06T01:54:02.559Z,99.90
2023-05-06T01:55:05.773Z,99.90
2023-05-06T01:56:09.904Z,99.90
2023-05-06T01:57:13.051Z,99.90
2023-05-06T01:58:16.236Z,99.90
2023-05-06T01:59:18.287Z,99.90
2023-05-06T02:00:21.509Z,99.90
2023-05-06T02:01:24.363Z,99.90
2023-05-06T02:02:27.516Z,99.90
2023-05-06T02:03:29.821Z,99.90
2023-05-06T02:04:33.190Z,99.90
2023-05-06T02:05:35.833Z,99.90
2023-05-06T02:06:39.749Z,99.90
2023-05-06T02:07:41.902Z,99.90
2023-05-06T02:08:45.124Z,99.90
2023-05-06T02:09:52.767Z,99.90
2023-05-06T02:10:55.933Z,99.90
2023-05-06T02:11:58.149Z,99.90
2023-05-06T02:13:01.524Z,99.90
2023-05-06T02:14:03.671Z,99.90
2023-05-06T02:15:10.577Z,99.90
2023-05-06T02:16:12.928Z,99.90
2023-05-06T02:17:16.140Z,99.90
2023-05-06T02:18:18.872Z,99.90
2023-05-06T02:19:22.023Z,99.90
2023-05-06T02:20:24.255Z,99.90
2023-05-06T02:21:27.803Z,99.90
2023-05-06T02:22:29.973Z,99.90
2023-05-06T02:23:33.021Z,99.90
2023-05-06T02:24:35.200Z,99.90
2023-05-06T02:25:39.685Z,99.90
2023-05-06T02:26:41.695Z,99.90
2023-05-06T02:27:44.990Z,99.90
2023-05-06T02:28:47.051Z,99.90
2023-05-06T02:29:50.094Z,99.90
2023-05-06T02:30:55.896Z,99.90
2023-05-06T02:31:59.014Z,99.90
2023-05-06T02:33:01.179Z,99.90
2023-05-06T02:34:04.357Z,99.90
2023-05-06T02:35:07.853Z,99.90
2023-05-06T02:36:11.228Z,99.90
2023-05-06T02:37:13.471Z,99.90
2023-05-06T02:38:16.592Z,99.90
2023-05-06T02:39:18.622Z,99.90
2023-05-06T02:40:21.670Z,99.90
2023-05-06T02:41:25.278Z,99.90
2023-05-06T02:42:28.464Z,99.90
2023-05-06T02:43:30.474Z,99.90
2023-05-06T02:44:34.812Z,99.90
2023-05-06T02:45:36.941Z,99.90
2023-05-06T02:46:40.030Z,99.90
2023-05-06T02:47:42.213Z,99.90
2023-05-06T02:48:46.815Z,99.90
2023-05-06T02:49:48.869Z,99.90
2023-05-06T02:50:52.691Z,99.90
2023-05-06T02:51:54.695Z,99.90
2023-05-06T02:52:57.721Z,99.90
2023-05-06T02:53:59.799Z,99.90
2023-05-06T02:55:03.019Z,99.90
2023-05-06T02:56:06.079Z,99.90
2023-05-06T02:57:10.547Z,99.90
2023-05-06T02:58:12.617Z,99.90
2023-05-06T02:59:15.655Z,99.90
2023-05-06T03:00:18.332Z,99.90
2023-05-06T03:01:21.349Z,99.90
2023-05-06T03:02:23.559Z,99.90
2023-05-06T03:03:26.748Z,99.90
2023-05-06T03:04:28.855Z,99.90
2023-05-06T03:05:32.113Z,99.90
2023-05-06T03:06:34.315Z,99.90
2023-05-06T03:07:37.772Z,99.90
2023-05-06T03:08:40.094Z,99.90
2023-05-06T03:09:43.564Z,99.90
2023-05-06T03:10:46.593Z,99.90
2023-05-06T03:11:51.524Z,99.90
2023-05-06T03:12:55.055Z,99.90
2023-05-06T03:13:58.713Z,99.90
2023-05-06T03:15:00.798Z,99.90
2023-05-06T03:16:05.312Z,99.90
2023-05-06T03:17:07.375Z,99.90
2023-05-06T03:18:12.591Z,99.90
2023-05-06T03:19:15.333Z,99.90
2023-05-06T03:20:20.653Z,99.90
2023-05-06T03:21:26.937Z,99.90
2023-05-06T03:22:30.067Z,99.90
2023-05-06T03:23:32.763Z,99.90
2023-05-06T03:24:36.639Z,99.90
2023-05-06T03:25:40.986Z,99.90
2023-05-06T03:26:44.542Z,99.90
2023-05-06T03:27:48.170Z,99.90
2023-05-06T03:28:56.573Z,99.90
2023-05-06T03:29:58.865Z,99.90
2023-05-06T03:31:01.932Z,99.90
2023-05-06T03:32:05.990Z,99.90
2023-05-06T03:33:15.378Z,99.90
2023-05-06T03:34:18.103Z,99.90
2023-05-06T03:35:22.137Z,99.90
2023-05-06T03:36:31.744Z,99.90
2023-05-06T03:37:34.186Z,99.90
2023-05-06T03:38:37.280Z,99.90
2023-05-06T03:39:42.955Z,99.90
2023-05-06T03:40:46.420Z,99.90
2023-05-06T03:41:50.092Z,99.90
2023-05-06T03:42:54.036Z,99.90
2023-05-06T03:43:59.019Z,99.90
2023-05-06T03:45:03.912Z,99.90
2023-05-06T03:46:07.986Z,99.90
2023-05-06T03:47:12.559Z,99.90
2023-05-06T03:48:14.679Z,99.90
2023-05-06T03:49:20.599Z,99.90
2023-05-06T03:50:23.376Z,99.90
2023-05-06T03:51:28.588Z,99.90
2023-05-06T03:52:31.104Z,99.90
2023-05-06T03:53:35.363Z,99.90
2023-05-06T03:54:38.976Z,99.90
2023-05-06T03:55:43.269Z,99.90
2023-05-06T03:56:47.039Z,99.90
2023-05-06T03:57:51.141Z,99.90
2023-05-06T03:58:54.598Z,99.90
2023-05-06T04:00:01.081Z,99.90
2023-05-06T04:01:04.328Z,99.90
2023-05-06T04:02:07.528Z,99.90
2023-05-06T04:03:12.039Z,99.90
2023-05-06T04:04:20.364Z,99.90
2023-05-06T04:05:22.523Z,99.90
2023-05-06T04:06:26.117Z,99.90
2023-05-06T04:07:28.332Z,99.90
2023-05-06T04:08:31.304Z,99.90
2023-05-06T04:09:34.059Z,99.90
2023-05-06T04:10:41.123Z,99.90
2023-05-06T04:11:51.403Z,99.90
2023-05-06T04:12:54.913Z,99.90
2023-05-06T04:14:04.191Z,99.90
2023-05-06T04:15:10.448Z,99.90
2023-05-06T04:16:12.786Z,99.90
2023-05-06T04:17:19.632Z,99.90
2023-05-06T04:18:22.728Z,99.90
2023-05-06T04:19:34.568Z,99.90
2023-05-06T04:20:36.757Z,99.90
2023-05-06T04:21:39.828Z,99.90
2023-05-06T04:22:45.297Z,99.90
2023-05-06T04:23:48.922Z,99.90
2023-05-06T04:24:55.314Z,99.90
2023-05-06T04:25:59.293Z,99.90
2023-05-06T04:27:04.355Z,99.90
2023-05-06T04:28:06.788Z,99.90
2023-05-06T04:29:10.839Z,99.90
2023-05-06T04:30:22.472Z,99.90
2023-05-06T04:31:29.602Z,99.90
2023-05-06T04:32:36.960Z,99.90
2023-05-06T04:33:41.938Z,99.90
2023-05-06T04:34:47.785Z,99.90
2023-05-06T04:35:54.088Z,99.90
2023-05-06T04:36:56.523Z,99.90
2023-05-06T04:38:14.937Z,99.90
2023-05-06T04:39:18.128Z,99.90
2023-05-06T04:40:22.376Z,99.90
2023-05-06T04:41:26.844Z,99.90
2023-05-06T04:42:30.350Z,99.90
2023-05-06T04:43:42.592Z,99.90
2023-05-06T04:44:52.078Z,99.90
2023-05-06T04:45:59.795Z,99.90
2023-05-06T04:47:06.797Z,99.90
2023-05-06T04:48:09.806Z,99.90
2023-05-06T04:49:12.889Z,99.90
2023-05-06T04:50:15.588Z,99.90
2023-05-06T04:51:19.682Z,99.90
2023-05-06T04:52:22.092Z,99.90
2023-05-06T04:53:25.123Z,99.90
2023-05-06T04:54:27.179Z,99.90
2023-05-06T04:55:30.238Z,99.90
2023-05-06T04:56:33.234Z,99.90
2023-05-06T04:57:35.330Z,99.90
2023-05-06T04:58:39.243Z,99.90
2023-05-06T04:59:42.544Z,99.90
2023-05-06T05:00:45.613Z,99.90
2023-05-06T05:01:49.138Z,99.90
2023-05-06T05:02:52.275Z,99.90
2023-05-06T05:03:54.827Z,99.90
2023-05-06T05:04:57.954Z,99.90
2023-05-06T05:06:00.774Z,99.90
2023-05-06T05:07:03.951Z,99.90
2023-05-06T05:08:07.308Z,99.90
2023-05-06T05:09:13.116Z,99.90
2023-05-06T05:10:18.191Z,99.90
2023-05-06T05:11:21.783Z,99.90
2023-05-06T05:12:24.105Z,99.90
2023-05-06T05:13:28.866Z,99.90
2023-05-06T05:14:31.865Z,99.90
2023-05-06T05:15:35.375Z,99.90
2023-05-06T05:16:37.867Z,99.90
2023-05-06T05:17:42.986Z,99.90
2023-05-06T05:18:45.169Z,99.90
2023-05-06T05:19:55.648Z,99.90
2023-05-06T05:20:57.702Z,99.90
2023-05-06T05:22:00.833Z,99.90
2023-05-06T05:23:03.754Z,99.90
2023-05-06T05:24:07.446Z,99.90
2023-05-06T05:25:10.786Z,99.90
2023-05-06T05:26:14.135Z,99.90
2023-05-06T05:27:17.784Z,99.90
2023-05-06T05:28:21.830Z,99.90
2023-05-06T05:29:24.224Z,99.90
2023-05-06T05:30:27.506Z,99.90
2023-05-06T05:31:31.143Z,99.90
2023-05-06T05:32:34.428Z,99.90
2023-05-06T05:33:37.887Z,99.90
2023-05-06T05:34:44.216Z,99.90
2023-05-06T05:35:46.364Z,99.90
2023-05-06T05:36:49.834Z,99.90
2023-05-06T05:37:51.900Z,99.90
2023-05-06T05:38:55.730Z,99.90
2023-05-06T05:40:00.104Z,99.90
2023-05-06T05:41:03.282Z,99.90
2023-05-06T05:42:05.572Z,99.90
2023-05-06T05:43:10.460Z,99.90
2023-05-06T05:44:15.086Z,99.90
2023-05-06T05:45:18.744Z,96.70
2023-05-06T05:46:22.000Z,91.70
2023-05-06T05:47:25.351Z,88.80
2023-05-06T05:48:29.072Z,83.00
2023-05-06T05:49:33.656Z,77.20
2023-05-06T05:50:37.241Z,72.10
2023-05-06T05:51:40.489Z,69.20
2023-05-06T05:52:44.890Z,70.50
2023-05-06T05:53:47.541Z,70.20
2023-05-06T05:54:51.134Z,72.20
2023-05-06T05:55:54.155Z,73.20
2023-05-06T05:56:58.006Z,72.70
2023-05-06T05:58:00.596Z,72.30
2023-05-06T05:59:04.870Z,70.90
2023-05-06T06:00:10.594Z,69.30
2023-05-06T06:01:20.183Z,70.70
2023-05-06T06:02:22.390Z,72.20
2023-05-06T06:03:25.666Z,73.70
2023-05-06T06:04:27.935Z,77.20
2023-05-06T06:05:32.454Z,79.80
2023-05-06T06:06:34.664Z,83.20
2023-05-06T06:07:37.854Z,86.50
2023-05-06T06:08:40.497Z,90.40
2023-05-06T06:09:46.692Z,92.10
2023-05-06T06:10:50.032Z,94.20
2023-05-06T06:11:57.667Z,96.40
2023-05-06T06:13:00.287Z,98.50
2023-05-06T06:14:06.344Z,99.90
2023-05-06T06:15:10.284Z,99.90
2023-05-06T06:16:14.034Z,99.90
2023-05-06T06:17:16.350Z,99.90
2023-05-06T06:18:20.028Z,99.90
2023-05-06T06:19:22.690Z,99.90
2023-05-06T06:20:26.536Z,99.90
2023-05-06T06:21:30.399Z,99.90
2023-05-06T06:22:34.216Z,99.90
2023-05-06T06:23:36.389Z,99.90
2023-05-06T06:24:39.583Z,99.90
2023-05-06T06:25:41.605Z,99.90
2023-05-06T06:26:44.659Z,99.90
2023-05-06T06:27:46.834Z,99.90
2023-05-06T06:28:49.820Z,99.90
2023-05-06T06:29:51.898Z,99.90
2023-05-06T06:30:54.896Z,99.90
2023-05-06T06:31:58.135Z,99.90
2023-05-06T06:33:01.587Z,99.90
2023-05-06T06:34:06.523Z,99.90
2023-05-06T06:35:09.749Z,99.90
2023-05-06T06:36:12.003Z,99.90
2023-05-06T06:37:16.367Z,99.90
2023-05-06T06:38:18.404Z,99.90
2023-05-06T06:39:21.444Z,99.90
2023-05-06T06:40:23.601Z,99.90
2023-05-06T06:41:28.002Z,99.90
2023-05-06T06:42:30.115Z,99.90
2023-05-06T06:43:44.181Z,99.90
2023-05-06T06:44:52.093Z,99.90
2023-05-06T06:45:56.198Z,99.90
2023-05-06T06:46:58.318Z,99.90
2023-05-06T06:48:01.355Z,99.90
2023-05-06T06:49:03.399Z,99.90
2023-05-06T06:50:07.672Z,99.90
2023-05-06T06:51:09.851Z,99.90
2023-05-06T06:52:12.917Z,99.90
2023-05-06T06:53:16.446Z,99.90
2023-05-06T06:54:19.640Z,99.90
2023-05-06T06:55:21.919Z,99.90
2023-05-06T06:56:25.121Z,99.90
2023-05-06T06:57:27.283Z,99.90
2023-05-06T06:58:30.378Z,99.90
2023-05-06T06:59:32.427Z,99.90
2023-05-06T07:00:35.686Z,99.90
2023-05-06T07:01:37.919Z,99.90
2023-05-06T07:02:41.218Z,99.90
2023-05-06T07:03:43.430Z,99.90
2023-05-06T07:04:46.481Z,99.90
2023-05-06T07:05:48.848Z,99.90
2023-05-06T07:06:51.832Z,99.90
2023-05-06T07:07:54.318Z,99.90
2023-05-06T07:08:58.653Z,99.90
2023-05-06T07:10:01.682Z,99.90
2023-05-06T07:11:04.668Z,99.90
2023-05-06T07:12:07.062Z,99.90
2023-05-06T07:13:10.262Z,99.90
2023-05-06T07:14:12.807Z,99.90
2023-05-06T07:15:15.828Z,99.90
2023-05-06T07:16:17.935Z,99.90
2023-05-06T07:17:21.119Z,99.90
2023-05-06T07:18:23.212Z,99.90
2023-05-06T07:19:26.227Z,99.90
2023-05-06T07:20:29.257Z,99.90
2023-05-06T07:21:32.292Z,99.90
2023-05-06T07:22:35.737Z,99.90
2023-05-06T07:23:37.748Z,99.90
2023-05-06T07:24:42.256Z,99.90
2023-05-06T07:25:45.236Z,99.90
2023-05-06T07:26:48.552Z,99.90
2023-05-06T07:27:50.596Z,99.90
2023-05-06T07:28:53.722Z,99.90
2023-05-06T07:29:55.897Z,99.90
2023-05-06T07:30:58.966Z,99.90
2023-05-06T07:32:01.292Z,99.90
2023-05-06T07:33:04.380Z,99.90
2023-05-06T07:34:07.645Z,99.90
2023-05-06T07:35:10.984Z,99.90
2023-05-06T07:36:13.208Z,99.90
2023-05-06T07:37:16.213Z,99.90
2023-05-06T07:38:21.748Z,99.90
2023-05-06T07:39:23.776Z,99.90
2023-05-06T07:40:28.257Z,99.90
2023-05-06T07:41:30.345Z,99.90
2023-05-06T07:42:33.312Z,99.90
2023-05-06T07:43:35.497Z,99.90
2023-05-06T07:44:38.524Z,99.90
2023-05-06T07:45:41.780Z,99.90
2023-05-06T07:46:44.443Z,99.90
2023-05-06T07:47:47.636Z,99.90
2023-05-06T07:48:49.760Z,99.90
2023-05-06T07:49:52.760Z,99.90
2023-05-06T07:50:55.120Z,99.90
2023-05-06T07:51:58.206Z,99.90
2023-05-06T07:53:01.699Z,99.90
2023-05-06T07:54:03.955Z,99.90
2023-05-06T07:55:09.989Z,99.90
2023-05-06T07:56:14.087Z,99.90
2023-05-06T07:57:17.410Z,97.60
2023-05-06T07:58:19.559Z,94.50
2023-05-06T07:59:22.573Z,91.80
2023-05-06T08:00:24.742Z,90.80
2023-05-06T08:01:29.983Z,88.70
2023-05-06T08:02:32.209Z,88.00
2023-05-06T08:03:36.235Z,88.60
2023-05-06T08:04:38.558Z,85.90
2023-05-06T08:05:41.554Z,84.60
2023-05-06T08:06:43.621Z,83.80
2023-05-06T08:07:47.719Z,83.20
2023-05-06T08:08:49.755Z,83.20
2023-05-06T08:09:52.745Z,80.20
2023-05-06T08:10:54.852Z,79.50
2023-05-06T08:11:59.344Z,81.40
2023-05-06T08:13:01.422Z,76.70
2023-05-06T08:14:04.436Z,74.60
2023-05-06T08:15:08.012Z,72.80
2023-05-06T08:16:11.207Z,71.10
2023-05-06T08:17:13.639Z,68.40
2023-05-06T08:18:22.278Z,67.40
2023-05-06T08:19:24.658Z,66.00
2023-05-06T08:20:27.684Z,64.90
2023-05-06T08:21:30.812Z,64.20
2023-05-06T08:22:32.989Z,62.70
2023-05-06T08:23:36.059Z,62.00
2023-05-06T08:24:38.102Z,62.80
2023-05-06T08:25:41.138Z,65.20
2023-05-06T08:26:43.160Z,66.80
2023-05-06T08:27:47.816Z,68.00
2023-05-06T08:28:49.863Z,69.60
2023-05-06T08:29:52.971Z,71.00
2023-05-06T08:30:55.422Z,72.20
2023-05-06T08:31:58.447Z,75.00
2023-05-06T08:33:00.644Z,76.50
2023-05-06T08:34:03.767Z,75.10
2023-05-06T08:35:06.725Z,75.20
2023-05-06T08:36:09.934Z,75.20
2023-05-06T08:37:11.913Z,77.20
2023-05-06T08:38:15.080Z,79.10
2023-05-06T08:39:18.263Z,81.00
2023-05-06T08:40:22.517Z,82.80
2023-05-06T08:41:27.271Z,82.60
2023-05-06T08:42:30.801Z,82.90
2023-05-06T08:43:41.124Z,83.70
2023-05-06T08:44:43.827Z,81.40
2023-05-06T08:45:47.131Z,77.50
2023-05-06T08:46:49.208Z,74.30
2023-05-06T08:47:52.865Z,67.90
2023-05-06T08:48:54.977Z,63.00
2023-05-06T08:49:58.037Z,59.50
2023-05-06T08:51:03.354Z,56.70
2023-05-06T08:52:07.017Z,55.90
2023-05-06T08:53:11.885Z,54.40
2023-05-06T08:54:15.075Z,53.20
2023-05-06T08:55:19.053Z,51.10
2023-05-06T08:56:24.187Z,50.20
2023-05-06T08:57:28.805Z,49.10
2023-05-06T08:58:34.458Z,47.70
2023-05-06T08:59:37.884Z,46.80
2023-05-06T09:00:40.158Z,45.50
2023-05-06T09:01:43.340Z,44.70
2023-05-06T09:02:45.802Z,43.80
2023-05-06T09:03:49.789Z,43.00
2023-05-06T09:04:53.196Z,42.30
2023-05-06T09:05:58.172Z,41.40
2023-05-06T09:07:00.242Z,39.20
2023-05-06T09:08:03.702Z,39.20
2023-05-06T09:09:05.747Z,38.70
2023-05-06T09:10:13.082Z,37.80
2023-05-06T09:11:23.208Z,37.60
2023-05-06T09:12:26.332Z,37.80
2023-05-06T09:13:28.394Z,36.70
2023-05-06T09:14:32.738Z,36.00
2023-05-06T09:15:40.780Z,35.80
2023-05-06T09:16:45.741Z,36.50
2023-05-06T09:17:48.916Z,36.10
2023-05-06T09:18:50.991Z,36.40
2023-05-06T09:19:54.595Z,37.70
2023-05-06T09:20:57.392Z,38.40
2023-05-06T09:22:02.300Z,39.60
2023-05-06T09:23:04.570Z,40.90
2023-05-06T09:24:09.193Z,41.00
2023-05-06T09:25:12.731Z,40.30
2023-05-06T09:26:14.849Z,40.10
2023-05-06T09:27:17.887Z,41.60
2023-05-06T09:28:21.039Z,42.50
2023-05-06T09:29:24.042Z,42.70
2023-05-06T09:30:27.624Z,43.10
2023-05-06T09:31:31.353Z,43.40
2023-05-06T09:32:35.236Z,45.20
2023-05-06T09:33:39.463Z,46.00
2023-05-06T09:34:46.341Z,46.50
2023-05-06T09:35:49.937Z,47.30
2023-05-06T09:36:53.759Z,48.00
2023-05-06T09:37:57.310Z,49.10
2023-05-06T09:38:59.431Z,50.00
2023-05-06T09:40:02.559Z,50.80
2023-05-06T09:41:06.980Z,51.10
2023-05-06T09:42:10.130Z,52.10
2023-05-06T09:43:12.841Z,53.10
2023-05-06T09:44:16.725Z,53.80
2023-05-06T09:45:18.797Z,54.30
2023-05-06T09:46:24.879Z,54.50
2023-05-06T09:47:28.372Z,54.60
2023-05-06T09:48:31.711Z,54.90
2023-05-06T09:49:33.961Z,55.90
2023-05-06T09:50:37.590Z,54.90
2023-05-06T09:51:41.467Z,54.20
2023-05-06T09:52:46.712Z,53.30
2023-05-06T09:53:50.148Z,53.30
2023-05-06T09:54:53.286Z,52.40
2023-05-06T09:55:58.431Z,52.20
2023-05-06T09:57:01.302Z,52.20
2023-05-06T09:58:05.211Z,51.00
2023-05-06T09:59:08.235Z,49.20
2023-05-06T10:00:13.123Z,46.50
2023-05-06T10:01:32.742Z,44.40
2023-05-06T10:02:43.151Z,43.50
2023-05-06T10:03:46.285Z,42.50
2023-05-06T10:04:51.164Z,41.40
2023-05-06T10:05:54.677Z,40.00
2023-05-06T10:07:00.818Z,39.00
2023-05-06T10:08:04.308Z,38.80
2023-05-06T10:09:08.364Z,37.70
2023-05-06T10:10:11.497Z,37.40
2023-05-06T10:11:16.141Z,36.70
2023-05-06T10:12:19.944Z,36.10
2023-05-06T10:13:24.643Z,35.30
2023-05-06T10:14:26.756Z,35.70
2023-05-06T10:15:30.528Z,35.90
2023-05-06T10:16:33.896Z,35.80
2023-05-06T10:17:40.162Z,35.40
2023-05-06T10:18:46.513Z,34.70
2023-05-06T10:19:52.311Z,35.10
2023-05-06T10:20:55.615Z,35.50
2023-05-06T10:22:06.363Z,35.80
2023-05-06T10:23:17.751Z,36.20
2023-05-06T10:24:23.582Z,36.60
2023-05-06T10:25:34.853Z,36.90
2023-05-06T10:26:38.288Z,36.50
2023-05-06T10:27:41.895Z,36.10
2023-05-06T10:28:49.523Z,35.80
2023-05-06T10:29:53.744Z,35.60
2023-05-06T10:30:59.146Z,35.90
2023-05-06T10:32:03.380Z,36.00
2023-05-06T10:33:08.045Z,35.60
2023-05-06T10:34:11.563Z,37.20
2023-05-06T10:35:21.432Z,38.20
2023-05-06T10:36:26.019Z,39.20
2023-05-06T10:37:31.984Z,38.70
2023-05-06T10:38:36.812Z,39.00
2023-05-06T10:39:42.567Z,39.90
2023-05-06T10:40:45.380Z,39.60
2023-05-06T10:41:48.955Z,40.60
2023-05-06T10:42:51.462Z,41.50
2023-05-06T10:43:57.486Z,42.30
2023-05-06T10:45:01.060Z,42.40
2023-05-06T10:46:06.487Z,42.20
2023-05-06T10:47:09.399Z,42.30
2023-05-06T10:48:12.805Z,41.50
2023-05-06T10:49:20.831Z,42.20
2023-05-06T10:50:28.524Z,41.80
2023-05-06T10:51:32.127Z,40.90
2023-05-06T10:52:44.740Z,39.90
2023-05-06T10:54:02.384Z,40.50
2023-05-06T10:55:26.265Z,40.40
2023-05-06T10:56:30.062Z,39.80
2023-05-06T10:57:41.928Z,40.40
2023-05-06T10:58:47.499Z,40.90
2023-05-06T10:59:50.559Z,41.00
2023-05-06T11:00:54.959Z,41.20
2023-05-06T11:02:09.700Z,42.20
2023-05-06T11:03:14.218Z,42.50
2023-05-06T11:04:20.454Z,43.30
2023-05-06T11:05:23.697Z,42.90
2023-05-06T11:06:38.188Z,43.40
2023-05-06T11:07:41.338Z,43.70
2023-05-06T11:08:45.376Z,43.90
2023-05-06T11:09:56.539Z,44.10
2023-05-06T11:10:59.581Z,44.00
2023-05-06T11:12:03.610Z,42.70
2023-05-06T11:13:23.594Z,43.00
2023-05-06T11:14:27.951Z,42.40
2023-05-06T11:15:40.856Z,42.30
2023-05-06T11:16:50.603Z,42.30
2023-05-06T11:17:54.874Z,42.20
2023-05-06T11:18:57.105Z,41.30
2023-05-06T11:20:21.588Z,41.40
2023-05-06T11:21:39.346Z,40.50
2023-05-06T11:22:42.310Z,40.00
2023-05-06T11:24:07.419Z,40.10
2023-05-06T11:25:10.541Z,39.30
2023-05-06T11:26:13.490Z,41.40
2023-05-06T11:27:19.527Z,40.40
2023-05-06T11:28:22.601Z,41.90
2023-05-06T11:29:26.221Z,41.50
2023-05-06T11:30:28.377Z,42.70
2023-05-06T11:31:38.679Z,41.70
2023-05-06T11:32:44.648Z,41.00
2023-05-06T11:33:47.929Z,40.20
2023-05-06T11:34:55.362Z,40.00
2023-05-06T11:35:59.726Z,38.90
2023-05-06T11:37:04.738Z,39.20
2023-05-06T11:38:06.867Z,38.60
2023-05-06T11:39:10.025Z,38.70
2023-05-06T11:40:15.694Z,39.30
2023-05-06T11:41:19.242Z,39.10
2023-05-06T11:42:26.926Z,38.40
2023-05-06T11:43:28.965Z,38.30
2023-05-06T11:44:33.211Z,37.80
2023-05-06T11:45:41.119Z,38.50
2023-05-06T11:46:44.996Z,37.90
2023-05-06T11:47:48.068Z,38.30
2023-05-06T11:48:50.613Z,38.30
2023-05-06T11:49:55.837Z,37.80
2023-05-06T11:50:59.226Z,37.10
2023-05-06T11:52:02.290Z,36.20
2023-05-06T11:53:04.430Z,36.80
2023-05-06T11:54:09.665Z,36.90
2023-05-06T11:55:12.847Z,37.20
2023-05-06T11:56:14.955Z,37.50
2023-05-06T11:57:17.948Z,37.80
2023-05-06T11:58:24.097Z,38.70
2023-05-06T11:59:30.034Z,39.80
2023-05-06T12:00:32.082Z,40.80
2023-05-06T12:01:35.106Z,41.20
2023-05-06T12:02:38.231Z,41.10
2023-05-06T12:03:40.869Z,40.90
2023-05-06T12:04:45.455Z,40.20
2023-05-06T12:05:48.398Z,40.40
2023-05-06T12:06:53.688Z,40.10
2023-05-06T12:07:56.899Z,40.50
2023-05-06T12:08:59.037Z,40.60
2023-05-06T12:10:04.250Z,40.70
2023-05-06T12:11:08.865Z,40.60
2023-05-06T12:12:13.414Z,39.80
2023-05-06T12:13:16.172Z,40.00
2023-05-06T12:14:20.157Z,40.40
2023-05-06T12:15:22.312Z,41.20
2023-05-06T12:16:26.920Z,41.20
2023-05-06T12:17:30.070Z,41.00
2023-05-06T12:18:33.030Z,40.90
2023-05-06T12:19:36.799Z,40.70
2023-05-06T12:20:39.116Z,40.90
2023-05-06T12:21:42.115Z,41.30
2023-05-06T12:22:46.440Z,40.70
2023-05-06T12:23:52.429Z,40.40
2023-05-06T12:24:55.695Z,40.50
2023-05-06T12:26:02.343Z,39.90
2023-05-06T12:27:05.835Z,39.40
2023-05-06T12:28:14.849Z,39.60
2023-05-06T12:29:18.847Z,39.20
2023-05-06T12:30:29.924Z,38.80
2023-05-06T12:31:33.094Z,39.50
2023-05-06T12:32:36.170Z,40.10
2023-05-06T12:33:45.230Z,40.30
2023-05-06T12:34:48.399Z,40.60
2023-05-06T12:35:51.617Z,40.50
2023-05-06T12:36:54.572Z,41.20
2023-05-06T12:38:07.855Z,40.50
2023-05-06T12:39:11.736Z,39.40
2023-05-06T12:40:17.245Z,39.60
2023-05-06T12:41:20.684Z,38.30
2023-05-06T12:42:24.245Z,38.80
2023-05-06T12:43:30.055Z,38.50
2023-05-06T12:44:37.783Z,36.90
2023-05-06T12:45:40.764Z,37.00
2023-05-06T12:46:52.519Z,36.60
2023-05-06T12:47:56.540Z,36.50
2023-05-06T12:48:59.680Z,36.30
2023-05-06T12:50:02.662Z,37.90
2023-05-06T12:51:18.789Z,37.40
2023-05-06T12:52:24.214Z,35.00
2023-05-06T12:53:35.153Z,35.00
2023-05-06T12:54:38.667Z,34.60
2023-05-06T12:55:42.623Z,34.60
2023-05-06T12:56:44.995Z,34.20
2023-05-06T12:57:49.172Z,34.60
2023-05-06T12:59:01.143Z,34.50
2023-05-06T13:00:07.382Z,35.30
2023-05-06T13:01:09.795Z,34.30
2023-05-06T13:02:13.482Z,34.80
2023-05-06T13:03:15.647Z,34.30
2023-05-06T13:04:18.747Z,34.10
2023-05-06T13:05:21.845Z,34.40
2023-05-06T13:06:24.187Z,33.90
2023-05-06T13:07:27.251Z,33.60
2023-05-06T13:08:29.482Z,34.00
2023-05-06T13:09:33.863Z,34.80
2023-05-06T13:10:35.863Z,34.80
2023-05-06T13:11:38.832Z,34.50
2023-05-06T13:12:41.849Z,33.90
2023-05-06T13:13:43.922Z,33.70
2023-05-06T13:14:46.906Z,33.90
2023-05-06T13:15:49.283Z,33.80
2023-05-06T13:16:52.390Z,34.10
2023-05-06T13:17:54.639Z,33.80
2023-05-06T13:18:57.703Z,33.80
2023-05-06T13:20:01.553Z,33.10
2023-05-06T13:21:04.593Z,33.10
2023-05-06T13:22:07.557Z,33.20
2023-05-06T13:23:09.683Z,33.10
2023-05-06T13:24:12.836Z,33.40
2023-05-06T13:25:17.352Z,33.40
2023-05-06T13:26:19.414Z,32.80
2023-05-06T13:27:22.440Z,33.00
2023-05-06T13:28:25.208Z,32.40
2023-05-06T13:29:29.387Z,32.90
2023-05-06T13:30:32.392Z,32.10
2023-05-06T13:31:35.719Z,32.30
2023-05-06T13:32:37.862Z,31.90
2023-05-06T13:33:40.959Z,31.70
2023-05-06T13:34:43.951Z,31.70
2023-05-06T13:35:45.972Z,31.80
2023-05-06T13:36:49.999Z,30.80
2023-05-06T13:37:52.039Z,30.60
2023-05-06T13:38:55.726Z,30.60
2023-05-06T13:39:57.817Z,30.60
2023-05-06T13:41:02.322Z,31.30
2023-05-06T13:42:06.086Z,31.00
2023-05-06T13:43:11.370Z,30.80
2023-05-06T13:44:13.835Z,31.00
2023-05-06T13:45:16.868Z,32.00
2023-05-06T13:46:19.026Z,32.00
2023-05-06T13:47:22.765Z,32.30